PST: 08:30 MST: 09:30 CST: 10:30 EST: 11:30 LDN: 16:30 UTC: 15:30
User Agent: CCBot/2.0 (https://commoncrawl.org/faq/)
IP Address: 44.192.54.67
Hostname: ec2-44-192-54-67.compute-1.amazonaws.com

METAR:
KBFI 261453Z 14006KT 10SM -RA FEW044 BKN070 OVC080 09/08 A2973 RMK AO2 SLP069 P0000 60000 T00940083 58002
KBFI 261353Z 16007KT 10SM -RA BKN065 OVC085 09/08 A2974 RMK AO2 RAE1254B13 SLP072 P0000 T00940083
KBFI 261253Z 15006KT 10SM -RA SCT032 BKN042 OVC055 09/08 A2974 RMK AO2 RAB27 SLP071 P0000 T00940083
KBFI 261153Z AUTO 17011KT 10SM FEW080 10/08 A2974 RMK AO2 SLP070 60001 70003 T01000078 10111 20089 53008

TAF:
KBFI 261437Z 2615/2712 16007KT P6SM -RA SCT035 BKN060 OVC080
FM 261800 15007KT P6SM -SHRA SCT035 BKN050
FM 262100 17012G20KT P6SM -SHRA SCT030 OVC045
FM 271100 17008KT P6SM -SHRA SCT015 BKN025 OVC040

KBFI 261139Z 2612/2712 17010KT P6SM -RA SCT035 BKN050 OVC070
FM 262100 17012G20KT P6SM -SHRA SCT030 OVC045
FM 271100 17008KT P6SM -SHRA SCT015 BKN025 OVC040

KBFI 260545Z 2606/2706 17012KT P6SM SCT025 OVC060 TEMPO 2606/2609 BKN025 OVC060
FM 260900 17012KT P6SM BKN025 OVC040
FM 261700 17012KT P6SM -RA SCT025 OVC045
FM 270000 17012G20KT P6SM -SHRA SCT025 OVC045

KBFI 260305Z 2603/2624 17014G22KT P6SM -RA SCT022 OVC040 TEMPO 2603/2604 5SM RA BKN022
FM 260700 16008KT P6SM -SHRA SCT025 BKN045 OVC060
FM 261900 16011KT P6SM -RA OVC035

KBFI 252320Z 2600/2624 16016G25KT P6SM -RA OVC050
FM 260300 17012KT P6SM -SHRA OVC050
FM 260700 16008KT P6SM -SHRA SCT025 BKN045 OVC060
FM 261900 16011KT P6SM -RA OVC035

KBFI 251720Z 2518/2618 16018G30KT P6SM -RA OVC050
FM 260100 17012KT P6SM -SHRA OVC050
FM 260700 16008KT P6SM -SHRA SCT025 BKN045 OVC060

KBFI 251140Z 2512/2612 16018G30KT P6SM SCT050 OVC080
FM 251800 16018G30KT P6SM -RA OVC050
FM 260700 18012KT P6SM -SHRA SCT025 BKN045 OVC060